Time;durP1;ratioP1;P1;durP2;ratioP2;P2;SDS_P1;SDS_P2;PMS_P1;PMS_P2;Temp;Humidity;BMP_temperature;BMP_pressure;BME280_temperature;BME280_humidity;BME280_pressure;Samples;Min_cycle;Max_cycle;Signal;HPM_P1;HPM_P2
2023/01/23 00:00:14;;;;;;;29.42;17.77;;;4.00;99.90;;;;;;5076463;28;20028;-60
2023/01/23 00:02:40;;;;;;;26.58;16.85;;;4.00;99.90;;;;;;5059027;28;20029;-59
2023/01/23 00:05:06;;;;;;;32.78;17.95;;;4.00;99.90;;;;;;5042571;28;20039;-59
2023/01/23 00:07:32;;;;;;;31.75;18.63;;;4.10;99.90;;;;;;5058909;28;20032;-59
2023/01/23 00:09:58;;;;;;;27.83;17.42;;;4.00;99.90;;;;;;5060218;28;20044;-59
2023/01/23 00:12:24;;;;;;;29.65;17.50;;;4.00;99.90;;;;;;5060656;28;20064;-59
2023/01/23 00:14:50;;;;;;;33.97;18.27;;;4.00;99.90;;;;;;5062756;28;20036;-59
2023/01/23 00:17:16;;;;;;;30.50;17.67;;;4.00;99.90;;;;;;5079813;28;20037;-59
2023/01/23 00:19:41;;;;;;;29.13;16.95;;;3.90;99.90;;;;;;5062872;28;20052;-59
2023/01/23 00:22:07;;;;;;;29.88;17.55;;;4.00;99.90;;;;;;5079883;28;20032;-59
2023/01/23 00:24:33;;;;;;;30.80;18.40;;;4.00;99.90;;;;;;5062480;28;20420;-59
2023/01/23 00:26:59;;;;;;;29.27;18.38;;;4.10;99.90;;;;;;5080269;28;20043;-59
2023/01/23 00:29:25;;;;;;;29.65;17.88;;;4.10;99.90;;;;;;5079771;28;20043;-59
2023/01/23 00:31:50;;;;;;;34.88;18.27;;;4.00;99.90;;;;;;5079673;28;20398;-59
2023/01/23 00:34:16;;;;;;;32.85;17.52;;;4.00;99.90;;;;;;5079636;28;20031;-59
2023/01/23 00:36:43;;;;;;;31.80;18.33;;;4.10;99.90;;;;;;5079846;28;20033;-59
2023/01/23 00:39:18;;;;;;;32.55;18.05;;;4.00;99.90;;;;;;5080189;28;20388;-59
2023/01/23 00:41:48;;;;;;;32.28;18.17;;;4.00;99.90;;;;;;5079905;28;20031;-59
2023/01/23 00:44:15;;;;;;;32.67;18.08;;;4.00;99.90;;;;;;5079851;28;20336;-59
2023/01/23 00:46:41;;;;;;;32.53;18.60;;;4.10;99.90;;;;;;5062060;28;20059;-59
2023/01/23 00:49:07;;;;;;;30.67;17.83;;;4.10;99.90;;;;;;5079692;28;20040;-59
2023/01/23 00:51:34;;;;;;;36.15;18.58;;;4.10;99.90;;;;;;5079224;28;20048;-59
2023/01/23 00:54:00;;;;;;;33.13;19.13;;;4.00;99.90;;;;;;5079336;28;20032;-59
2023/01/23 00:56:27;;;;;;;34.08;18.77;;;4.10;99.90;;;;;;5061733;28;20029;-59
2023/01/23 00:58:53;;;;;;;31.52;18.27;;;4.10;99.90;;;;;;5079180;28;20434;-59
2023/01/23 01:01:21;;;;;;;34.92;18.20;;;4.10;99.90;;;;;;5079123;28;20037;-59
2023/01/23 01:03:47;;;;;;;40.78;19.70;;;4.10;99.90;;;;;;5061745;28;20024;-59
2023/01/23 01:06:13;;;;;;;35.92;18.23;;;4.00;99.90;;;;;;5061942;28;20280;-59
2023/01/23 01:08:39;;;;;;;36.13;19.42;;;4.00;99.90;;;;;;5079031;28;20028;-58
2023/01/23 01:11:06;;;;;;;30.38;18.85;;;4.00;99.90;;;;;;5079534;28;20032;-59
2023/01/23 01:13:32;;;;;;;31.95;18.58;;;3.90;99.90;;;;;;5061740;28;20085;-59
2023/01/23 01:16:00;;;;;;;34.30;18.95;;;3.90;99.90;;;;;;5079156;28;20028;-62
2023/01/23 01:18:28;;;;;;;33.70;18.98;;;4.00;99.90;;;;;;5061408;28;20020;-59
2023/01/23 01:20:55;;;;;;;34.20;19.63;;;3.90;99.90;;;;;;5079435;28;20032;-61
2023/01/23 01:23:21;;;;;;;30.25;18.15;;;3.90;99.90;;;;;;5060548;28;20025;-59
2023/01/23 01:25:47;;;;;;;34.25;19.13;;;3.80;99.90;;;;;;5078795;28;20399;-59
2023/01/23 01:28:13;;;;;;;34.25;18.88;;;4.00;99.90;;;;;;5061182;28;20304;-59
2023/01/23 01:30:40;;;;;;;33.65;18.83;;;3.90;99.90;;;;;;5061211;28;20403;-59
2023/01/23 01:33:07;;;;;;;37.83;18.67;;;3.80;99.90;;;;;;5078607;28;20029;-60
2023/01/23 01:35:33;;;;;;;32.83;18.45;;;3.80;99.90;;;;;;5061709;28;20090;-59
2023/01/23 01:37:59;;;;;;;38.72;20.58;;;3.80;99.90;;;;;;5060978;28;20355;-59
2023/01/23 01:40:30;;;;;;;32.03;18.83;;;3.70;99.90;;;;;;5078996;28;20028;-59
2023/01/23 01:42:59;;;;;;;38.43;19.63;;;3.80;99.90;;;;;;5078440;28;20079;-59
2023/01/23 01:45:59;;;;;;;33.17;18.70;;;3.60;99.90;;;;;;5078605;28;20028;-59
2023/01/23 01:48:40;;;;;;;33.72;18.75;;;3.60;99.90;;;;;;5078276;28;20039;-59
2023/01/23 01:51:18;;;;;;;35.55;19.40;;;3.70;99.90;;;;;;5061263;28;20396;-59
2023/01/23 01:53:49;;;;;;;32.72;19.02;;;3.70;99.90;;;;;;5078475;28;20269;-59
2023/01/23 01:56:16;;;;;;;32.95;18.65;;;3.70;99.90;;;;;;5078061;28;20030;-60
2023/01/23 01:58:46;;;;;;;31.83;18.80;;;3.80;99.90;;;;;;5077984;28;20021;-59
2023/01/23 02:01:12;;;;;;;36.97;19.77;;;3.80;99.90;;;;;;5044373;28;20127;-59
2023/01/23 02:03:39;;;;;;;34.85;18.98;;;3.80;99.90;;;;;;5077964;28;20025;-59
2023/01/23 02:06:06;;;;;;;35.97;19.35;;;3.70;99.90;;;;;;5043964;28;20063;-59
2023/01/23 02:09:02;;;;;;;36.08;19.73;;;3.60;99.90;;;;;;5043824;28;20110;-60
2023/01/23 02:11:29;;;;;;;36.38;19.70;;;3.70;99.90;;;;;;5055293;28;20132;-59
2023/01/23 02:13:55;;;;;;;32.33;18.67;;;3.80;99.90;;;;;;5060412;28;20037;-59
2023/01/23 02:16:28;;;;;;;38.10;19.83;;;3.80;99.90;;;;;;5077603;28;20043;-60
2023/01/23 02:18:59;;;;;;;32.70;19.88;;;3.80;99.90;;;;;;5077717;28;20036;-59
2023/01/23 02:21:26;;;;;;;33.25;18.73;;;3.80;99.90;;;;;;5060236;28;20074;-60
2023/01/23 02:23:59;;;;;;;31.35;18.88;;;3.70;99.90;;;;;;5077470;28;20032;-59
2023/01/23 02:26:35;;;;;;;32.42;19.23;;;3.60;99.90;;;;;;5043859;28;20029;-60
2023/01/23 02:29:03;;;;;;;35.20;20.08;;;3.60;99.90;;;;;;5060362;28;20020;-59
2023/01/23 02:31:32;;;;;;;31.35;18.55;;;3.60;99.90;;;;;;5060845;28;20025;-59
2023/01/23 02:33:59;;;;;;;34.40;20.05;;;3.50;99.90;;;;;;5077461;28;20032;-59
2023/01/23 02:36:29;;;;;;;30.88;19.10;;;3.70;99.90;;;;;;5059772;28;20026;-59
2023/01/23 02:39:17;;;;;;;32.67;20.02;;;3.60;99.90;;;;;;5060019;28;20461;-59
2023/01/23 02:41:49;;;;;;;34.88;19.00;;;3.70;99.90;;;;;;5059906;28;20128;-60
2023/01/23 02:44:34;;;;;;;31.65;18.90;;;3.70;99.90;;;;;;5043404;28;20296;-59
2023/01/23 02:47:06;;;;;;;32.92;19.35;;;3.70;99.90;;;;;;5060502;28;20029;-59
2023/01/23 02:49:32;;;;;;;37.72;20.17;;;3.60;99.90;;;;;;5076985;28;20133;-60
2023/01/23 02:52:02;;;;;;;35.53;21.20;;;3.70;99.90;;;;;;5059831;28;20071;-59
2023/01/23 02:54:28;;;;;;;36.17;21.13;;;3.80;99.90;;;;;;5059724;28;20040;-60
2023/01/23 02:56:55;;;;;;;39.33;20.42;;;3.80;99.90;;;;;;5076990;28;20043;-59
2023/01/23 03:02:07;;;;;;;36.40;20.65;;;3.80;99.90;;;;;;5045572;28;20032;-59
2023/01/23 03:04:33;;;;;;;38.13;21.08;;;3.90;99.90;;;;;;5077020;28;20028;-60
2023/01/23 03:06:59;;;;;;;40.22;20.45;;;3.90;99.90;;;;;;5076962;28;20032;-59
2023/01/23 03:09:26;;;;;;;34.70;20.30;;;3.90;99.90;;;;;;5059430;28;20028;-59
2023/01/23 03:11:51;;;;;;;35.20;20.38;;;3.90;99.90;;;;;;5076872;28;20299;-60
2023/01/23 03:14:19;;;;;;;35.72;19.77;;;4.00;99.90;;;;;;5059443;28;20032;-59
2023/01/23 03:16:50;;;;;;;38.38;20.20;;;4.00;99.90;;;;;;5059325;28;20033;-60
2023/01/23 03:19:18;;;;;;;34.10;20.83;;;3.90;99.90;;;;;;5076159;28;20032;-60
2023/01/23 03:21:44;;;;;;;37.83;20.50;;;3.80;99.90;;;;;;5059350;28;20040;-60
2023/01/23 03:24:12;;;;;;;35.10;20.80;;;3.80;99.90;;;;;;5076995;28;20041;-60
2023/01/23 03:26:43;;;;;;;35.97;19.65;;;3.90;99.90;;;;;;5075974;28;20063;-59
2023/01/23 03:32:03;;;;;;;33.15;19.40;;;3.60;99.90;;;;;;5059280;28;20036;-59
2023/01/23 03:34:30;;;;;;;33.38;19.25;;;3.60;99.90;;;;;;5077007;28;20416;-59
2023/01/23 03:36:57;;;;;;;35.05;19.80;;;3.60;99.90;;;;;;5077512;28;20103;-59
2023/01/23 03:42:08;;;;;;;37.90;19.40;;;3.60;99.90;;;;;;5045183;28;20175;-60
2023/01/23 03:44:35;;;;;;;36.30;19.08;;;3.60;99.90;;;;;;5059134;28;20128;-60
2023/01/23 03:47:02;;;;;;;35.08;19.55;;;3.60;99.90;;;;;;5060356;28;20115;-60
2023/01/23 03:49:28;;;;;;;35.97;20.02;;;3.70;99.90;;;;;;5080449;28;20037;-60
2023/01/23 03:51:58;;;;;;;35.95;19.95;;;3.60;99.90;;;;;;5063091;28;20048;-60
2023/01/23 03:54:24;;;;;;;39.67;20.45;;;3.70;99.90;;;;;;5063017;28;20362;-58
2023/01/23 03:56:51;;;;;;;36.28;19.35;;;3.70;99.90;;;;;;5062765;28;20108;-58
2023/01/23 03:59:35;;;;;;;34.20;19.85;;;3.70;99.90;;;;;;5065720;28;20036;-58
2023/01/23 04:02:03;;;;;;;32.40;18.55;;;3.70;99.90;;;;;;5080583;28;20311;-59
2023/01/23 04:04:33;;;;;;;35.97;19.48;;;3.80;99.90;;;;;;5081402;28;20281;-58
2023/01/23 04:07:01;;;;;;;32.80;19.88;;;3.80;99.90;;;;;;5062977;28;20158;-58
2023/01/23 04:09:29;;;;;;;43.50;20.58;;;3.80;99.90;;;;;;5062734;28;20044;-58
2023/01/23 04:11:57;;;;;;;37.90;20.85;;;3.80;99.90;;;;;;5062673;28;20119;-58
2023/01/23 04:14:29;;;;;;;36.22;20.00;;;3.90;99.90;;;;;;5046252;28;20060;-59
2023/01/23 04:16:55;;;;;;;35.83;20.98;;;3.80;99.90;;;;;;5062499;28;20040;-58
2023/01/23 04:19:20;;;;;;;39.72;20.42;;;3.80;99.90;;;;;;5080024;28;20029;-58
2023/01/23 04:21:47;;;;;;;33.80;19.58;;;3.90;99.90;;;;;;5062564;28;20063;-58
2023/01/23 04:24:15;;;;;;;35.47;20.52;;;3.80;99.90;;;;;;5046124;28;20032;-58
2023/01/23 04:26:41;;;;;;;35.58;19.95;;;3.80;99.90;;;;;;5062451;28;20302;-58
2023/01/23 04:29:07;;;;;;;35.50;20.33;;;3.80;99.90;;;;;;5079803;28;20112;-59
2023/01/23 04:31:33;;;;;;;37.40;20.80;;;3.80;99.90;;;;;;5062351;28;20086;-58
2023/01/23 04:33:59;;;;;;;33.90;19.98;;;3.80;99.90;;;;;;5062191;28;20050;-59
2023/01/23 04:36:26;;;;;;;36.33;21.48;;;3.80;99.90;;;;;;5062158;28;20040;-59
2023/01/23 04:38:52;;;;;;;34.88;19.85;;;3.80;99.90;;;;;;5062123;28;20032;-58
2023/01/23 04:41:26;;;;;;;33.45;20.10;;;3.70;99.90;;;;;;5063066;28;20359;-59
2023/01/23 04:44:18;;;;;;;31.80;19.17;;;3.80;99.90;;;;;;5046550;28;20251;-58
2023/01/23 04:46:53;;;;;;;39.67;20.35;;;3.70;99.90;;;;;;5078949;28;20037;-59
2023/01/23 04:49:23;;;;;;;36.30;20.17;;;3.80;99.90;;;;;;5079756;28;20052;-59
2023/01/23 04:51:51;;;;;;;34.28;20.08;;;3.80;99.90;;;;;;5061933;28;20036;-59
2023/01/23 04:54:20;;;;;;;36.70;20.40;;;3.90;99.90;;;;;;5046015;28;20387;-60
2023/01/23 04:56:47;;;;;;;34.28;20.52;;;3.90;99.90;;;;;;5045252;28;20296;-59
2023/01/23 04:59:15;;;;;;;36.75;21.25;;;3.90;99.90;;;;;;5060553;28;20029;-59
2023/01/23 05:01:42;;;;;;;37.85;20.42;;;3.90;99.90;;;;;;5061734;28;20032;-59
2023/01/23 05:04:08;;;;;;;35.47;20.23;;;3.80;99.90;;;;;;5061714;28;20043;-59
2023/01/23 05:06:35;;;;;;;41.78;21.45;;;3.80;99.90;;;;;;5079348;28;20391;-59
2023/01/23 05:09:01;;;;;;;37.40;20.50;;;3.80;99.90;;;;;;5061638;28;20024;-59
2023/01/23 05:11:35;;;;;;;32.15;19.85;;;3.90;99.90;;;;;;5061662;28;20090;-59
2023/01/23 05:14:01;;;;;;;38.08;20.48;;;3.80;99.90;;;;;;5061991;28;20032;-59
2023/01/23 05:16:29;;;;;;;33.88;20.45;;;3.80;99.90;;;;;;5061618;28;20039;-59
2023/01/23 05:19:16;;;;;;;35.85;20.77;;;3.70;99.90;;;;;;5061826;28;20037;-59
2023/01/23 05:21:42;;;;;;;36.25;21.05;;;3.80;99.90;;;;;;5061365;28;20153;-59
2023/01/23 05:24:13;;;;;;;41.58;21.50;;;3.90;99.90;;;;;;5061397;28;20039;-59
2023/01/23 05:26:39;;;;;;;37.83;21.45;;;3.90;99.90;;;;;;5044720;28;20399;-59
2023/01/23 05:29:05;;;;;;;36.15;20.45;;;3.70;99.90;;;;;;5078642;28;20028;-59
2023/01/23 05:31:35;;;;;;;38.88;21.58;;;3.80;99.90;;;;;;5045102;28;20040;-59
2023/01/23 05:34:20;;;;;;;37.17;21.45;;;3.70;99.90;;;;;;5077971;28;20040;-59
2023/01/23 05:36:46;;;;;;;40.45;21.90;;;3.80;99.90;;;;;;5060968;28;20036;-60
2023/01/23 05:39:13;;;;;;;35.47;20.85;;;3.80;99.90;;;;;;5060993;28;20471;-62
2023/01/23 05:41:39;;;;;;;39.88;22.00;;;3.90;99.90;;;;;;5060984;28;20063;-59
2023/01/23 05:44:27;;;;;;;39.65;21.80;;;4.00;99.90;;;;;;5061297;28;20091;-59
2023/01/23 05:47:00;;;;;;;;;;;3.90;99.90;;;;;;5061323;28;20059;-59
2023/01/23 05:49:26;;;;;;;42.22;21.23;;;3.90;99.90;;;;;;5061444;28;19948;-59
2023/01/23 05:51:52;;;;;;;40.03;21.95;;;3.90;99.90;;;;;;5060769;28;20090;-59
2023/01/23 05:54:17;;;;;;;40.40;22.45;;;3.90;99.90;;;;;;5078064;28;20304;-59
2023/01/23 05:56:45;;;;;;;43.42;22.90;;;4.00;99.90;;;;;;5060489;28;20029;-59
2023/01/23 05:59:30;;;;;;;39.90;21.48;;;4.00;99.90;;;;;;5078636;28;20063;-59
2023/01/23 06:02:14;;;;;;;42.80;22.85;;;4.00;99.90;;;;;;5060398;28;20029;-59
2023/01/23 06:04:59;;;;;;;39.70;22.20;;;4.00;99.90;;;;;;5078078;28;20303;-59
2023/01/23 06:07:36;;;;;;;44.35;22.25;;;3.90;99.90;;;;;;5045529;28;20124;-59
2023/01/23 06:10:07;;;;;;;40.83;21.58;;;3.90;99.90;;;;;;5060098;28;20064;-59
2023/01/23 06:12:32;;;;;;;41.90;22.25;;;3.90;99.90;;;;;;5060226;28;20029;-59
2023/01/23 06:14:58;;;;;;;45.67;22.55;;;3.80;99.90;;;;;;5078391;28;20116;-59
2023/01/23 06:17:24;;;;;;;39.78;21.52;;;3.90;99.90;;;;;;5077573;28;20075;-59
2023/01/23 06:19:50;;;;;;;43.58;22.48;;;3.90;99.90;;;;;;5060257;28;20361;-59
2023/01/23 06:22:16;;;;;;;36.90;21.50;;;3.90;99.90;;;;;;5077559;28;20029;-58
2023/01/23 06:25:02;;;;;;;39.70;22.08;;;4.00;99.90;;;;;;5046441;28;20036;-58
2023/01/23 06:27:28;;;;;;;39.63;21.15;;;4.10;99.90;;;;;;5077796;28;20131;-58
2023/01/23 06:29:54;;;;;;;35.22;21.08;;;3.90;99.90;;;;;;5060061;28;20387;-60
2023/01/23 06:32:22;;;;;;;40.88;21.38;;;3.80;99.90;;;;;;5044077;28;20032;-59
2023/01/23 06:34:48;;;;;;;38.60;22.17;;;3.70;99.90;;;;;;5043801;28;20033;-59
2023/01/23 06:37:14;;;;;;;43.75;21.70;;;3.80;99.90;;;;;;5077280;28;20036;-59
2023/01/23 06:39:43;;;;;;;38.78;22.17;;;3.90;99.90;;;;;;5059928;28;20032;-59
2023/01/23 06:42:09;;;;;;;37.88;21.63;;;3.90;99.90;;;;;;5059740;28;20400;-59
2023/01/23 06:44:39;;;;;;;40.35;22.45;;;3.80;99.90;;;;;;5060747;28;20032;-59
2023/01/23 06:47:05;;;;;;;39.72;21.83;;;3.70;99.90;;;;;;5076378;28;20036;-59
2023/01/23 06:49:32;;;;;;;41.85;21.85;;;3.80;99.90;;;;;;5059498;28;20041;-59
2023/01/23 06:51:57;;;;;;;39.42;21.77;;;3.80;99.90;;;;;;5077432;28;20430;-59
2023/01/23 06:54:25;;;;;;;38.17;21.83;;;3.90;99.90;;;;;;5059901;28;20032;-60
2023/01/23 06:56:56;;;;;;;36.50;21.55;;;3.90;99.90;;;;;;5076343;28;20128;-59
2023/01/23 06:59:22;;;;;;;38.47;21.38;;;3.90;99.90;;;;;;5059555;28;20366;-59
2023/01/23 07:01:48;;;;;;;40.95;22.48;;;3.90;99.90;;;;;;5059649;28;20044;-59
2023/01/23 07:04:18;;;;;;;39.80;22.02;;;4.00;99.90;;;;;;5060102;28;20025;-59
2023/01/23 07:06:46;;;;;;;35.40;21.52;;;4.00;99.90;;;;;;5059384;28;20033;-59
2023/01/23 07:09:14;;;;;;;39.25;22.27;;;4.10;99.90;;;;;;5059501;28;20087;-59
2023/01/23 07:11:44;;;;;;;40.20;22.83;;;4.30;99.90;;;;;;5059447;28;20037;-60
2023/01/23 07:14:10;;;;;;;40.85;22.48;;;4.20;99.90;;;;;;5042894;28;20359;-59
2023/01/23 07:16:37;;;;;;;37.33;21.70;;;4.20;99.90;;;;;;5042868;28;20466;-59
2023/01/23 07:19:04;;;;;;;39.88;22.55;;;4.20;99.90;;;;;;5042887;28;20082;-59
2023/01/23 07:21:32;;;;;;;41.80;22.92;;;4.20;99.90;;;;;;5058629;28;20029;-61
2023/01/23 07:23:58;;;;;;;36.15;20.65;;;4.20;99.90;;;;;;5059300;28;20400;-59
2023/01/23 07:26:24;;;;;;;34.88;20.10;;;4.30;99.90;;;;;;5077240;28;20269;-58
2023/01/23 07:28:50;;;;;;;38.33;21.35;;;4.60;99.90;;;;;;5076688;28;20055;-59
2023/01/23 07:31:16;;;;;;;38.10;22.10;;;5.00;99.90;;;;;;5076740;28;20051;-60
2023/01/23 07:33:41;;;;;;;39.08;21.23;;;4.60;99.90;;;;;;5076614;28;20152;-59
2023/01/23 07:36:08;;;;;;;35.50;20.40;;;4.40;99.90;;;;;;5076636;28;20043;-59
2023/01/23 07:38:34;;;;;;;36.95;21.88;;;4.20;99.90;;;;;;5076796;28;20041;-59
2023/01/23 07:41:00;;;;;;;35.10;20.65;;;3.90;99.90;;;;;;5076603;28;20048;-60
2023/01/23 07:43:26;;;;;;;36.42;20.33;;;3.70;99.90;;;;;;5059286;28;20388;-59
2023/01/23 07:45:52;;;;;;;34.45;20.90;;;4.00;99.90;;;;;;5076564;28;20052;-59
2023/01/23 07:48:18;;;;;;;34.97;20.58;;;4.00;99.90;;;;;;5076586;28;20044;-59
2023/01/23 07:50:44;;;;;;;37.40;21.05;;;3.90;99.90;;;;;;5059112;28;20316;-59
2023/01/23 07:53:09;;;;;;;38.75;21.13;;;3.90;99.90;;;;;;5042275;28;20048;-59
2023/01/23 07:55:37;;;;;;;35.00;21.75;;;3.80;99.90;;;;;;5076310;28;20079;-59
2023/01/23 07:58:03;;;;;;;38.53;21.52;;;3.60;99.90;;;;;;5076204;28;20036;-59
2023/01/23 08:00:29;;;;;;;37.83;21.50;;;3.70;99.90;;;;;;5076197;28;20044;-59
2023/01/23 08:02:56;;;;;;;43.53;22.40;;;3.80;99.90;;;;;;5076262;28;20029;-59
2023/01/23 08:05:21;;;;;;;38.55;21.92;;;3.90;99.90;;;;;;5076895;28;20064;-59
2023/01/23 08:07:47;;;;;;;41.35;22.70;;;4.00;99.90;;;;;;5076563;28;20431;-59
2023/01/23 08:10:13;;;;;;;42.95;23.00;;;3.90;99.90;;;;;;5076402;28;20040;-59
2023/01/23 08:12:39;;;;;;;38.60;22.08;;;3.80;99.90;;;;;;5076315;28;20230;-59
2023/01/23 08:15:05;;;;;;;41.50;23.65;;;3.90;99.90;;;;;;5058964;28;20036;-59
2023/01/23 08:17:31;;;;;;;45.92;23.23;;;3.90;99.90;;;;;;5076204;28;20043;-59
2023/01/23 08:19:57;;;;;;;44.70;23.42;;;4.10;99.90;;;;;;5042265;28;20067;-59
2023/01/23 08:22:23;;;;;;;43.53;22.88;;;4.20;99.90;;;;;;5058926;28;20458;-59
2023/01/23 08:24:49;;;;;;;42.88;23.05;;;4.30;99.90;;;;;;5076737;28;20025;-59
2023/01/23 08:27:14;;;;;;;40.95;23.05;;;4.30;99.90;;;;;;5058829;28;20040;-59
2023/01/23 08:29:40;;;;;;;42.47;22.77;;;4.40;99.90;;;;;;5076209;28;20305;-59
2023/01/23 08:32:06;;;;;;;44.60;24.08;;;4.40;99.90;;;;;;5059217;28;20052;-59
2023/01/23 08:34:32;;;;;;;50.28;25.33;;;4.30;99.90;;;;;;5062015;28;20296;-59
2023/01/23 08:36:58;;;;;;;44.63;24.40;;;4.40;99.90;;;;;;5080043;28;20029;-58
2023/01/23 08:39:23;;;;;;;49.20;25.48;;;4.40;99.90;;;;;;5079640;28;20059;-59
2023/01/23 08:41:50;;;;;;;47.58;24.70;;;4.30;99.90;;;;;;5062231;28;20116;-59
2023/01/23 08:44:16;;;;;;;45.17;23.88;;;4.30;99.90;;;;;;5079607;28;20052;-59
2023/01/23 08:46:44;;;;;;;54.80;24.58;;;4.40;99.90;;;;;;5079730;28;20033;-59
2023/01/23 08:49:10;;;;;;;47.83;24.00;;;4.50;99.90;;;;;;5061929;28;20036;-59
2023/01/23 08:51:36;;;;;;;46.78;24.70;;;4.60;99.90;;;;;;5079219;28;20114;-59
2023/01/23 08:54:02;;;;;;;44.35;25.13;;;4.60;99.90;;;;;;5062193;28;20067;-59
2023/01/23 08:56:28;;;;;;;47.55;24.73;;;4.70;99.90;;;;;;5079651;28;20085;-59
2023/01/23 08:58:54;;;;;;;44.88;23.63;;;4.80;99.90;;;;;;5079234;28;20039;-59
2023/01/23 09:01:25;;;;;;;47.25;24.90;;;4.60;99.90;;;;;;5079229;28;20036;-60
2023/01/23 09:03:51;;;;;;;46.10;25.27;;;4.50;99.90;;;;;;5061785;28;20288;-59
2023/01/23 09:06:20;;;;;;;47.83;25.05;;;4.50;99.90;;;;;;5079156;28;20316;-59
2023/01/23 09:08:46;;;;;;;42.50;24.45;;;4.60;99.90;;;;;;5061688;28;20047;-59
2023/01/23 09:11:13;;;;;;;42.85;23.80;;;4.40;99.90;;;;;;5078991;28;20162;-59
2023/01/23 09:13:40;;;;;;;40.53;22.98;;;4.50;99.90;;;;;;5061567;28;20123;-59
2023/01/23 09:16:07;;;;;;;42.38;23.08;;;4.40;99.90;;;;;;5061384;28;20043;-59
2023/01/23 09:18:33;;;;;;;41.75;22.17;;;4.50;99.90;;;;;;5078857;28;20020;-59
2023/01/23 09:20:59;;;;;;;40.22;22.90;;;4.50;99.90;;;;;;5078874;28;20104;-59
2023/01/23 09:23:25;;;;;;;40.35;23.15;;;4.50;99.90;;;;;;5078893;28;20045;-59
2023/01/23 09:25:51;;;;;;;41.25;22.30;;;4.60;99.90;;;;;;5078695;28;20273;-59
2023/01/23 09:28:17;;;;;;;34.58;21.20;;;4.60;99.90;;;;;;5078591;28;20031;-59
2023/01/23 09:30:42;;;;;;;40.38;21.65;;;4.70;99.90;;;;;;5078713;28;20040;-59
2023/01/23 09:33:08;;;;;;;37.17;22.27;;;4.70;99.90;;;;;;5061264;28;20039;-59
2023/01/23 09:35:34;;;;;;;37.03;21.00;;;4.90;99.90;;;;;;5078726;28;20040;-59
2023/01/23 09:38:05;;;;;;;37.40;21.55;;;5.00;99.90;;;;;;5078263;28;20322;-59
2023/01/23 09:40:34;;;;;;;40.45;22.27;;;4.90;99.90;;;;;;5079021;28;20029;-59
2023/01/23 09:43:17;;;;;;;38.78;22.75;;;5.00;99.90;;;;;;5061346;28;20033;-59
2023/01/23 09:45:52;;;;;;;37.08;21.23;;;5.10;99.90;;;;;;5078064;28;20059;-59
2023/01/23 09:48:28;;;;;;;37.70;21.63;;;5.20;99.90;;;;;;5078321;28;20040;-59
2023/01/23 09:51:03;;;;;;;41.85;23.10;;;5.30;99.90;;;;;;5078382;28;20313;-59
2023/01/23 09:53:38;;;;;;;42.97;23.85;;;5.30;99.90;;;;;;5078149;28;20047;-59
2023/01/23 09:56:36;;;;;;;44.30;24.80;;;5.50;99.90;;;;;;5078187;28;20303;-59
2023/01/23 09:59:35;;;;;;;41.85;24.60;;;5.50;99.90;;;;;;5061254;28;20021;-59
2023/01/23 10:02:01;;;;;;;43.08;23.70;;;5.70;99.90;;;;;;5078041;28;20031;-59
2023/01/23 10:04:30;;;;;;;39.42;22.98;;;5.80;99.90;;;;;;5078121;28;20113;-59
2023/01/23 10:07:02;;;;;;;41.40;24.58;;;5.70;99.90;;;;;;5078092;28;20039;-59
2023/01/23 10:09:52;;;;;;;40.40;23.17;;;5.80;99.90;;;;;;5078542;28;20032;-59
2023/01/23 10:12:56;;;;;;;43.97;24.15;;;5.80;99.90;;;;;;5060384;28;20082;-59
2023/01/23 10:15:47;;;;;;;43.63;24.45;;;5.90;99.90;;;;;;5044541;28;20163;-59
2023/01/23 10:18:28;;;;;;;42.47;24.80;;;5.30;99.90;;;;;;5077599;28;20041;-59
2023/01/23 10:20:56;;;;;;;45.13;24.67;;;5.20;99.90;;;;;;5078283;28;20028;-59
2023/01/23 10:23:29;;;;;;;40.00;23.75;;;5.20;99.90;;;;;;5077591;28;20075;-59
2023/01/23 10:25:55;;;;;;;;;;;5.30;99.90;;;;;;5078065;28;20028;-59
2023/01/23 10:28:38;;;;;;;44.60;25.40;;;5.30;99.90;;;;;;5077641;28;20327;-59
2023/01/23 10:31:11;;;;;;;44.40;24.95;;;5.40;99.90;;;;;;5077512;28;20116;-59
2023/01/23 10:33:47;;;;;;;44.97;26.90;;;5.50;99.90;;;;;;5077374;28;20388;-59
2023/01/23 10:36:29;;;;;;;42.40;24.10;;;5.60;99.90;;;;;;5059870;28;20036;-59
2023/01/23 10:39:16;;;;;;;39.58;23.20;;;5.70;99.90;;;;;;5077436;28;20115;-60
2023/01/23 10:41:44;;;;;;;37.67;23.40;;;5.80;99.90;;;;;;5077506;28;20269;-59
2023/01/23 10:44:18;;;;;;;40.08;24.10;;;5.90;99.90;;;;;;5077300;28;20299;-59
2023/01/23 10:46:59;;;;;;;42.00;24.55;;;6.00;99.90;;;;;;5059852;28;20120;-59
2023/01/23 10:49:35;;;;;;;37.90;23.50;;;6.20;99.90;;;;;;5059729;28;20059;-60
2023/01/23 10:52:01;;;;;;;37.33;22.58;;;6.20;99.90;;;;;;5061001;28;20063;-59
2023/01/23 10:54:43;;;;;;;39.97;23.65;;;6.20;99.90;;;;;;5077585;28;20044;-59
2023/01/23 10:57:08;;;;;;;41.13;22.85;;;6.20;99.90;;;;;;5075975;28;20059;-59
2023/01/23 10:59:40;;;;;;;37.78;22.48;;;6.30;99.90;;;;;;5077038;28;20017;-59
2023/01/23 11:02:11;;;;;;;38.30;22.27;;;6.00;99.90;;;;;;5076921;28;20105;-59
2023/01/23 11:04:39;;;;;;;38.63;22.65;;;5.90;99.90;;;;;;5059383;28;20033;-62
2023/01/23 11:07:30;;;;;;;41.13;22.27;;;5.90;99.90;;;;;;5076785;28;20028;-59
2023/01/23 11:10:06;;;;;;;36.22;21.67;;;5.90;99.90;;;;;;5077478;28;20044;-59
2023/01/23 11:12:34;;;;;;;37.08;22.05;;;5.70;99.90;;;;;;5076924;28;20300;-59
2023/01/23 11:15:23;;;;;;;35.05;21.42;;;5.60;99.90;;;;;;5076901;28;20039;-59
2023/01/23 11:17:51;;;;;;;35.88;21.58;;;5.70;99.90;;;;;;5076720;28;20415;-59
2023/01/23 11:20:35;;;;;;;35.50;21.42;;;5.70;99.90;;;;;;5077303;28;20047;-59
2023/01/23 11:23:05;;;;;;;36.85;21.65;;;5.50;99.90;;;;;;5076853;28;20024;-59
2023/01/23 11:25:40;;;;;;;34.65;20.95;;;5.60;99.90;;;;;;5076867;28;20387;-60
2023/01/23 11:28:19;;;;;;;34.47;20.70;;;5.40;99.90;;;;;;5059375;28;20086;-58
2023/01/23 11:31:04;;;;;;;34.85;20.77;;;5.30;99.90;;;;;;5076776;28;20060;-59
2023/01/23 11:33:38;;;;;;;31.77;19.40;;;5.20;99.90;;;;;;5076893;28;20032;-58
2023/01/23 11:36:17;;;;;;;34.83;20.65;;;5.00;99.90;;;;;;5076586;28;20469;-59
2023/01/23 11:39:17;;;;;;;37.85;21.50;;;5.10;99.90;;;;;;5076489;28;20043;-58
2023/01/23 11:41:44;;;;;;;32.97;20.10;;;5.40;99.90;;;;;;5076977;28;20016;-59
2023/01/23 11:44:19;;;;;;;34.75;21.30;;;5.60;99.90;;;;;;5059236;28;20024;-59
2023/01/23 11:46:57;;;;;;;34.30;21.35;;;5.70;99.90;;;;;;5059577;28;20288;-58
2023/01/23 11:49:58;;;;;;;32.65;20.48;;;6.00;99.90;;;;;;5076413;28;20051;-58
2023/01/23 11:52:41;;;;;;;31.75;20.20;;;6.00;99.90;;;;;;5002833;28;20056;-58
2023/01/23 11:55:46;;;;;;;;;;;6.00;99.90;;;;;;5036254;28;20068;-59
2023/01/23 11:58:30;;;;;;;33.63;19.00;;;5.90;99.90;;;;;;4960253;28;19917;-60
2023/01/23 12:01:17;;;;;;;31.48;18.65;;;5.90;99.90;;;;;;4977198;28;20109;-58
2023/01/23 12:04:20;;;;;;;33.97;19.95;;;5.90;99.90;;;;;;5021025;28;20045;-58
2023/01/23 12:06:57;;;;;;;31.50;19.17;;;5.60;99.90;;;;;;5037091;28;20025;-58
2023/01/23 12:09:26;;;;;;;30.00;19.52;;;5.50;99.90;;;;;;5039727;28;20124;-58
2023/01/23 12:12:15;;;;;;;33.47;19.65;;;5.60;99.90;;;;;;5039319;28;20087;-58
2023/01/23 12:15:21;;;;;;;29.58;18.58;;;5.80;99.90;;;;;;5040372;28;20294;-58
2023/01/23 12:17:50;;;;;;;33.78;20.27;;;5.60;99.90;;;;;;5038579;28;20045;-58
2023/01/23 12:20:30;;;;;;;32.97;19.98;;;5.70;99.90;;;;;;5040018;28;20017;-58
2023/01/23 12:23:18;;;;;;;33.28;20.13;;;5.90;99.90;;;;;;5039264;28;20108;-58
2023/01/23 12:26:10;;;;;;;35.78;21.05;;;5.90;99.90;;;;;;5040307;28;20033;-58
2023/01/23 12:29:07;;;;;;;35.90;21.10;;;5.60;99.90;;;;;;5035182;28;20037;-58
2023/01/23 12:31:39;;;;;;;33.60;21.15;;;5.40;99.90;;;;;;5040350;28;20268;-58
2023/01/23 12:34:32;;;;;;;33.42;19.88;;;5.30;99.90;;;;;;5038973;28;20036;-59
2023/01/23 12:37:29;;;;;;;39.78;22.20;;;5.20;99.90;;;;;;5039519;28;20030;-59
2023/01/23 12:40:13;;;;;;;34.30;21.00;;;5.20;99.90;;;;;;5036492;28;20053;-59
2023/01/23 12:42:52;;;;;;;39.20;21.70;;;5.50;99.90;;;;;;5039756;28;20033;-58
2023/01/23 12:45:20;;;;;;;34.88;20.60;;;5.60;99.90;;;;;;5039466;28;20297;-58
2023/01/23 12:47:55;;;;;;;37.35;22.20;;;5.70;99.90;;;;;;5039474;28;20389;-59
2023/01/23 12:50:33;;;;;;;36.00;21.90;;;5.60;99.90;;;;;;5046496;28;20060;-59
2023/01/23 12:53:09;;;;;;;34.58;21.75;;;5.50;99.90;;;;;;5058569;28;20282;-59
2023/01/23 12:55:40;;;;;;;36.53;22.50;;;5.40;99.90;;;;;;5059755;28;20044;-59
2023/01/23 12:58:15;;;;;;;33.67;21.20;;;5.60;99.90;;;;;;5058784;28;20025;-59
2023/01/23 13:01:17;;;;;;;37.97;22.25;;;5.60;99.90;;;;;;5059258;28;20039;-58
2023/01/23 13:04:07;;;;;;;34.55;21.00;;;5.70;99.90;;;;;;5059489;28;20332;-58
2023/01/23 13:06:51;;;;;;;41.38;23.52;;;5.90;99.90;;;;;;5059705;28;20037;-58